Time;durP1;ratioP1;P1;durP2;ratioP2;P2;SDS_P1;SDS_P2;PMS_P1;PMS_P2;Temp;Humidity;BMP_temperature;BMP_pressure;BME280_temperature;BME280_humidity;BME280_pressure;Samples;Min_cycle;Max_cycle;Signal;HPM_P1;HPM_P2
2022/01/23 00:02:08;;;;;;;5.10;4.70;;;;;;;;;;5031425;28;20167;-58
2022/01/23 00:04:34;;;;;;;5.82;5.32;;;;;;;;;;5032993;28;20033;-57
2022/01/23 00:07:03;;;;;;;6.95;6.30;;;;;;;;;;5032261;28;20102;-57
2022/01/23 00:09:30;;;;;;;7.13;6.43;;;;;;;;;;5032510;28;20038;-57
2022/01/23 00:11:56;;;;;;;8.30;7.50;;;;;;;;;;5031863;28;20034;-57
2022/01/23 00:17:20;;;;;;;6.57;6.07;;;;;;;;;;5031561;28;20439;-57
2022/01/23 00:19:56;;;;;;;10.82;7.03;;;;;;;;;;5031712;28;20056;-57
2022/01/23 00:22:34;;;;;;;6.50;5.88;;;;;;;;;;5032119;28;20029;-58
2022/01/23 00:30:29;;;;;;;6.97;6.38;;;;;;;;;;5032042;28;20429;-57
2022/01/23 00:32:58;;;;;;;9.55;7.28;;;;;;;;;;5031155;28;20095;-57
2022/01/23 00:35:25;;;;;;;7.55;6.82;;;;;;;;;;5031878;28;20103;-57
2022/01/23 00:37:51;;;;;;;8.02;7.32;;;;;;;;;;5031004;28;20037;-57
2022/01/23 00:40:17;;;;;;;8.60;7.72;;;;;;;;;;5031598;28;20088;-57
2022/01/23 00:42:42;;;;;;;7.32;6.60;;;;;;;;;;5031949;28;20374;-59
2022/01/23 00:47:55;;;;;;;7.22;6.63;;;;;;;;;;5030893;28;20033;-57
2022/01/23 00:50:20;;;;;;;8.15;7.40;;;;;;;;;;5031262;28;20040;-57
2022/01/23 00:52:45;;;;;;;7.32;6.60;;;;;;;;;;5031842;28;20025;-57
2022/01/23 00:55:11;;;;;;;9.20;7.22;;;;;;;;;;5014168;28;20128;-57
2022/01/23 00:57:37;;;;;;;7.65;6.95;;;;;;;;;;5031031;28;20128;-57
2022/01/23 01:00:06;;;;;;;6.82;6.20;;;;;;;;;;5031749;28;20451;-57
2022/01/23 01:02:32;;;;;;;7.80;6.70;;;;;;;;;;5030789;28;20096;-57
2022/01/23 01:04:58;;;;;;;7.75;6.78;;;;;;;;;;5014011;28;20033;-57
2022/01/23 01:07:23;;;;;;;8.55;6.53;;;;;;;;;;5031606;28;20057;-57
2022/01/23 01:09:51;;;;;;;7.18;6.57;;;;;;;;;;5030054;28;20136;-57
2022/01/23 01:12:20;;;;;;;22.67;6.75;;;;;;;;;;5031685;28;20029;-57
2022/01/23 01:17:39;;;;;;;7.28;6.68;;;;;;;;;;5030579;28;20132;-58
2022/01/23 01:31:13;;;;;;;7.75;7.00;;;;;;;;;;5031138;28;20021;-58
2022/01/23 01:33:53;;;;;;;6.72;6.13;;;;;;;;;;5029142;28;20095;-58
2022/01/23 01:38:45;;;;;;;11.82;9.07;;;;;;;;;;5030937;28;20104;-58
2022/01/23 01:41:11;;;;;;;7.05;6.35;;;;;;;;;;5030492;28;20029;-58
2022/01/23 01:43:37;;;;;;;10.77;7.25;;;;;;;;;;5031048;28;20037;-58
2022/01/23 01:46:03;;;;;;;7.57;6.82;;;;;;;;;;5030897;28;20703;-58
2022/01/23 01:48:29;;;;;;;7.57;6.93;;;;;;;;;;5029902;28;20037;-58
2022/01/23 01:50:55;;;;;;;9.50;7.18;;;;;;;;;;5030565;28;20025;-58
2022/01/23 01:53:22;;;;;;;9.45;7.40;;;;;;;;;;5030980;28;20790;-58
2022/01/23 01:55:53;;;;;;;8.13;7.35;;;;;;;;;;5029754;28;20033;-58
2022/01/23 01:58:44;;;;;;;10.75;8.75;;;;;;;;;;5013283;28;20035;-58
2022/01/23 02:09:18;;;;;;;7.90;7.22;;;;;;;;;;5030491;28;20368;-58
2022/01/23 02:12:08;;;;;;;7.63;6.93;;;;;;;;;;5029626;28;20060;-58
2022/01/23 02:53:16;;;;;;;8.75;7.95;;;;;;;;;;5029590;28;20116;-57
2022/01/23 02:55:43;;;;;;;9.60;8.70;;;;;;;;;;5028991;28;20099;-57
2022/01/23 02:58:11;;;;;;;9.67;8.67;;;;;;;;;;5028989;28;20272;-58
2022/01/23 03:00:48;;;;;;;8.30;7.57;;;;;;;;;;5029322;28;20064;-58
2022/01/23 03:03:20;;;;;;;10.05;8.10;;;;;;;;;;5029143;28;20037;-58
2022/01/23 03:05:58;;;;;;;9.63;8.07;;;;;;;;;;5028956;28;20040;-58
2022/01/23 03:08:31;;;;;;;11.65;8.07;;;;;;;;;;5029139;28;20034;-58
2022/01/23 03:11:02;;;;;;;9.60;8.63;;;;;;;;;;5028814;28;20062;-58
2022/01/23 03:30:13;;;;;;;9.13;8.23;;;;;;;;;;5029046;28;20094;-58
2022/01/23 03:32:43;;;;;;;13.02;8.30;;;;;;;;;;5011136;28;20037;-58
2022/01/23 03:35:08;;;;;;;12.93;8.48;;;;;;;;;;5028752;28;20639;-58
2022/01/23 03:37:34;;;;;;;7.15;6.50;;;;;;;;;;5029107;28;20036;-58
2022/01/23 03:39:59;;;;;;;8.20;7.40;;;;;;;;;;5028019;28;20040;-57
2022/01/23 03:42:26;;;;;;;8.32;7.00;;;;;;;;;;5011004;28;20103;-57
2022/01/23 03:47:41;;;;;;;10.63;8.82;;;;;;;;;;5028165;28;20034;-57
2022/01/23 03:50:10;;;;;;;9.60;7.35;;;;;;;;;;5027245;28;20601;-57
2022/01/23 03:52:36;;;;;;;11.00;7.63;;;;;;;;;;5028509;28;20052;-57
2022/01/23 03:55:04;;;;;;;9.10;7.55;;;;;;;;;;5028219;28;20104;-57
2022/01/23 03:57:30;;;;;;;8.82;8.02;;;;;;;;;;5028218;28;20466;-57
2022/01/23 03:59:55;;;;;;;8.25;6.55;;;;;;;;;;5028821;28;20021;-57
2022/01/23 04:02:21;;;;;;;10.35;8.57;;;;;;;;;;5027841;28;20048;-57
2022/01/23 04:04:46;;;;;;;14.80;9.10;;;;;;;;;;5027974;28;20032;-57
2022/01/23 04:07:19;;;;;;;8.60;6.97;;;;;;;;;;5028303;28;20044;-57
2022/01/23 04:09:45;;;;;;;10.07;7.53;;;;;;;;;;5028570;28;20037;-57
2022/01/23 04:12:26;;;;;;;12.00;7.40;;;;;;;;;;5027409;28;20358;-57
2022/01/23 04:15:42;;;;;;;7.82;7.05;;;;;;;;;;5028637;28;20426;-57
2022/01/23 04:33:56;;;;;;;7.63;6.82;;;;;;;;;;5031710;28;20111;-58
2022/01/23 04:48:47;;;;;;;7.78;6.88;;;;;;;;;;5031064;28;20040;-57
2022/01/23 05:01:05;;;;;;;10.73;7.90;;;;;;;;;;5031699;28;20029;-58
2022/01/23 05:06:01;;;;;;;9.73;8.73;;;;;;;;;;5031583;28;20057;-58
2022/01/23 05:08:30;;;;;;;9.40;7.45;;;;;;;;;;5030613;28;20408;-56
2022/01/23 05:10:58;;;;;;;7.30;6.60;;;;;;;;;;5030771;28;20559;-57
2022/01/23 05:13:26;;;;;;;11.45;8.57;;;;;;;;;;5031663;28;20042;-58
2022/01/23 05:15:52;;;;;;;14.68;8.70;;;;;;;;;;5031140;28;20108;-58
2022/01/23 05:18:17;;;;;;;9.93;8.90;;;;;;;;;;5029863;28;20104;-58
2022/01/23 05:20:44;;;;;;;11.30;8.30;;;;;;;;;;5030968;28;20553;-58
2022/01/23 05:23:09;;;;;;;9.93;8.90;;;;;;;;;;5031301;28;20120;-58
2022/01/23 05:25:37;;;;;;;8.93;8.02;;;;;;;;;;5030176;28;20042;-58
2022/01/23 05:28:02;;;;;;;9.00;7.80;;;;;;;;;;5030744;28;20445;-58
2022/01/23 05:30:28;;;;;;;13.68;9.05;;;;;;;;;;5030740;28;20139;-58
2022/01/23 05:32:57;;;;;;;11.73;8.40;;;;;;;;;;5030352;28;20029;-58
2022/01/23 05:35:23;;;;;;;8.48;7.68;;;;;;;;;;5031111;28;20673;-58
2022/01/23 05:37:49;;;;;;;9.48;8.48;;;;;;;;;;5029634;28;20107;-58
2022/01/23 05:40:16;;;;;;;9.98;6.75;;;;;;;;;;5030641;28;20120;-58
2022/01/23 05:42:42;;;;;;;7.30;6.45;;;;;;;;;;5030906;28;20175;-58
2022/01/23 05:45:08;;;;;;;10.68;8.80;;;;;;;;;;5030911;28;20108;-58
2022/01/23 05:47:34;;;;;;;8.85;7.50;;;;;;;;;;5030295;28;20041;-58
2022/01/23 05:50:00;;;;;;;10.25;8.52;;;;;;;;;;5030908;28;20035;-57
2022/01/23 05:52:25;;;;;;;8.02;7.07;;;;;;;;;;5030852;28;20033;-58
2022/01/23 05:54:51;;;;;;;15.00;8.68;;;;;;;;;;5030849;28;20049;-58
2022/01/23 05:57:16;;;;;;;11.43;8.05;;;;;;;;;;5029943;28;20055;-58
2022/01/23 05:59:41;;;;;;;9.80;8.82;;;;;;;;;;5030487;28;20030;-57
2022/01/23 06:02:08;;;;;;;9.15;8.18;;;;;;;;;;5030147;28;20033;-57
2022/01/23 06:04:33;;;;;;;9.15;8.20;;;;;;;;;;5030176;28;20593;-58
2022/01/23 06:06:59;;;;;;;9.98;7.90;;;;;;;;;;5012698;28;20105;-58
2022/01/23 06:09:25;;;;;;;8.70;7.80;;;;;;;;;;5030470;28;20045;-57
2022/01/23 06:11:52;;;;;;;7.78;6.82;;;;;;;;;;5028439;28;20705;-57
2022/01/23 06:14:18;;;;;;;10.60;7.35;;;;;;;;;;5030049;28;20034;-57
2022/01/23 06:16:43;;;;;;;10.70;8.00;;;;;;;;;;5026977;28;20187;-58
2022/01/23 06:19:09;;;;;;;8.05;6.63;;;;;;;;;;5029997;28;20471;-57
2022/01/23 06:21:34;;;;;;;8.07;7.35;;;;;;;;;;5029850;28;20041;-57
2022/01/23 06:24:06;;;;;;;9.63;7.78;;;;;;;;;;5005767;28;20045;-57
2022/01/23 06:26:47;;;;;;;9.43;8.05;;;;;;;;;;5028781;28;20370;-57
2022/01/23 06:29:15;;;;;;;7.85;7.05;;;;;;;;;;5029314;28;20051;-57
2022/01/23 06:31:41;;;;;;;8.90;7.97;;;;;;;;;;5028728;28;20102;-56
2022/01/23 06:34:08;;;;;;;10.15;7.50;;;;;;;;;;5029582;28;20095;-57
2022/01/23 06:36:34;;;;;;;8.15;7.35;;;;;;;;;;5028102;28;20463;-57
2022/01/23 06:39:01;;;;;;;9.60;7.93;;;;;;;;;;5028845;28;20030;-56
2022/01/23 06:41:26;;;;;;;8.55;7.78;;;;;;;;;;5028840;28;20034;-57
2022/01/23 06:43:52;;;;;;;9.70;6.75;;;;;;;;;;5027408;28;20056;-57
2022/01/23 06:46:17;;;;;;;7.90;7.10;;;;;;;;;;5027447;28;20095;-57
2022/01/23 06:48:43;;;;;;;6.65;6.05;;;;;;;;;;5027004;28;20037;-57
2022/01/23 06:51:08;;;;;;;7.03;6.32;;;;;;;;;;5028910;28;20026;-58
2022/01/23 06:53:33;;;;;;;8.18;6.97;;;;;;;;;;5028048;28;20116;-57
2022/01/23 06:55:59;;;;;;;7.75;6.90;;;;;;;;;;5026907;28;20029;-56
2022/01/23 06:58:24;;;;;;;8.10;7.30;;;;;;;;;;5028148;28;20029;-56
2022/01/23 07:00:49;;;;;;;8.73;7.88;;;;;;;;;;5028395;28;20033;-57
2022/01/23 07:03:15;;;;;;;7.93;6.68;;;;;;;;;;5025026;28;20047;-56
2022/01/23 07:05:40;;;;;;;11.60;8.93;;;;;;;;;;5028545;28;20140;-58
2022/01/23 07:08:06;;;;;;;8.63;7.65;;;;;;;;;;5027583;28;20033;-59
2022/01/23 07:10:31;;;;;;;9.45;8.43;;;;;;;;;;5027670;28;20025;-59
2022/01/23 07:12:56;;;;;;;12.35;7.03;;;;;;;;;;5029387;28;20655;-59
2022/01/23 07:15:22;;;;;;;8.48;7.65;;;;;;;;;;5026572;28;20447;-59
2022/01/23 07:17:48;;;;;;;8.30;7.50;;;;;;;;;;5027101;28;20056;-59
2022/01/23 07:20:13;;;;;;;10.00;7.10;;;;;;;;;;5025062;28;20041;-58
2022/01/23 07:22:39;;;;;;;7.35;6.65;;;;;;;;;;5028247;28;20043;-58
2022/01/23 07:25:05;;;;;;;10.90;7.97;;;;;;;;;;5028281;28;20490;-59
2022/01/23 07:27:39;;;;;;;10.07;6.97;;;;;;;;;;5009108;28;20112;-58
2022/01/23 07:30:09;;;;;;;9.75;7.63;;;;;;;;;;5027902;28;20128;-58
2022/01/23 07:32:35;;;;;;;9.63;8.40;;;;;;;;;;5027588;28;20032;-58
2022/01/23 07:35:00;;;;;;;7.30;6.55;;;;;;;;;;5028393;28;20276;-58
2022/01/23 07:37:26;;;;;;;8.23;7.38;;;;;;;;;;5027733;28;20124;-58
2022/01/23 07:39:51;;;;;;;9.02;8.18;;;;;;;;;;5027084;28;20041;-58
2022/01/23 07:42:16;;;;;;;10.52;6.55;;;;;;;;;;5027537;28;20030;-59
2022/01/23 07:44:42;;;;;;;8.02;7.25;;;;;;;;;;5027893;28;20525;-58
2022/01/23 07:47:07;;;;;;;7.82;6.65;;;;;;;;;;5026990;28;20473;-59
2022/01/23 07:49:33;;;;;;;24.13;18.90;;;;;;;;;;5024240;28;20072;-59
2022/01/23 07:52:01;;;;;;;13.27;9.65;;;;;;;;;;5026332;28;20434;-59
2022/01/23 07:54:26;;;;;;;8.63;7.75;;;;;;;;;;5026915;28;20478;-59
2022/01/23 07:56:52;;;;;;;12.52;7.93;;;;;;;;;;5026988;28;20029;-59
2022/01/23 07:59:17;;;;;;;9.23;7.72;;;;;;;;;;5026908;28;20034;-59
2022/01/23 08:01:42;;;;;;;9.63;8.65;;;;;;;;;;5028515;28;20469;-59
2022/01/23 08:04:08;;;;;;;11.13;8.20;;;;;;;;;;5030154;28;20059;-58
2022/01/23 08:06:41;;;;;;;10.85;8.80;;;;;;;;;;5029863;28;20041;-58
2022/01/23 08:09:08;;;;;;;8.77;6.80;;;;;;;;;;5030649;28;20160;-58
2022/01/23 08:11:33;;;;;;;10.23;9.00;;;;;;;;;;5031487;28;20071;-59
2022/01/23 08:13:59;;;;;;;8.30;7.50;;;;;;;;;;5029668;28;20413;-58
2022/01/23 08:16:24;;;;;;;8.98;7.95;;;;;;;;;;5030294;28;20033;-59
2022/01/23 08:18:49;;;;;;;8.70;7.70;;;;;;;;;;5028463;28;20045;-59
2022/01/23 08:21:15;;;;;;;8.65;7.72;;;;;;;;;;5030445;28;20042;-59
2022/01/23 08:23:41;;;;;;;7.88;7.18;;;;;;;;;;5010370;28;20179;-59
2022/01/23 08:26:08;;;;;;;7.93;7.22;;;;;;;;;;5030980;28;20057;-59
2022/01/23 08:28:34;;;;;;;8.52;7.72;;;;;;;;;;5030831;28;20026;-59
2022/01/23 08:30:59;;;;;;;11.00;8.50;;;;;;;;;;5031884;28;20034;-59
2022/01/23 08:33:25;;;;;;;8.68;7.25;;;;;;;;;;5013062;28;20052;-58
2022/01/23 08:35:53;;;;;;;9.30;7.60;;;;;;;;;;5030777;28;20045;-58
2022/01/23 08:38:19;;;;;;;11.88;7.82;;;;;;;;;;5030562;28;20057;-58
2022/01/23 08:43:11;;;;;;;7.90;7.20;;;;;;;;;;5031463;28;20111;-59
2022/01/23 08:45:38;;;;;;;8.60;7.50;;;;;;;;;;5032004;28;20022;-59
2022/01/23 08:48:03;;;;;;;11.98;8.15;;;;;;;;;;5010770;28;20183;-59
2022/01/23 08:50:29;;;;;;;9.32;8.43;;;;;;;;;;5013468;28;20108;-59
2022/01/23 08:52:54;;;;;;;7.97;7.28;;;;;;;;;;5029923;28;20030;-59
2022/01/23 08:55:20;;;;;;;9.95;7.85;;;;;;;;;;5031944;28;20478;-59
2022/01/23 08:57:46;;;;;;;10.18;8.52;;;;;;;;;;5032189;28;20366;-60
2022/01/23 09:00:13;;;;;;;10.07;7.80;;;;;;;;;;5031009;28;20121;-59
2022/01/23 09:02:39;;;;;;;9.45;8.05;;;;;;;;;;5031239;28;20036;-58
2022/01/23 09:05:05;;;;;;;9.40;8.45;;;;;;;;;;5031786;28;20033;-59
2022/01/23 09:07:30;;;;;;;10.30;7.57;;;;;;;;;;5031399;28;20490;-59
2022/01/23 09:10:01;;;;;;;8.30;7.50;;;;;;;;;;5030880;28;20033;-58
2022/01/23 09:15:06;;;;;;;9.55;8.18;;;;;;;;;;5029741;28;20506;-58
2022/01/23 09:17:32;;;;;;;6.57;5.88;;;;;;;;;;5030835;28;20045;-59
2022/01/23 09:19:58;;;;;;;10.25;9.25;;;;;;;;;;5031418;28;20630;-59
2022/01/23 09:22:27;;;;;;;19.70;7.72;;;;;;;;;;5031481;28;20033;-58
2022/01/23 09:24:52;;;;;;;10.30;8.68;;;;;;;;;;5030271;28;20039;-58
2022/01/23 09:27:19;;;;;;;10.70;8.70;;;;;;;;;;5031013;28;20026;-58
2022/01/23 09:29:50;;;;;;;8.90;7.80;;;;;;;;;;5030829;28;20368;-58
2022/01/23 09:32:17;;;;;;;8.25;7.47;;;;;;;;;;5030145;28;20034;-59
2022/01/23 09:34:43;;;;;;;10.32;9.23;;;;;;;;;;5030290;28;20108;-59
2022/01/23 09:37:12;;;;;;;12.68;9.07;;;;;;;;;;5030526;28;20033;-59
2022/01/23 09:39:40;;;;;;;9.18;8.32;;;;;;;;;;5030279;28;20033;-59
2022/01/23 09:42:12;;;;;;;12.75;7.70;;;;;;;;;;5031191;28;20504;-59
2022/01/23 09:44:42;;;;;;;12.00;8.50;;;;;;;;;;5029754;28;20072;-59
2022/01/23 09:47:11;;;;;;;8.13;7.32;;;;;;;;;;5028845;28;20055;-59
2022/01/23 09:49:37;;;;;;;10.15;8.82;;;;;;;;;;5030001;28;20540;-59
2022/01/23 09:52:04;;;;;;;11.40;8.80;;;;;;;;;;5030898;28;20029;-59
2022/01/23 09:54:31;;;;;;;9.35;8.50;;;;;;;;;;5026179;28;20131;-59
2022/01/23 09:56:59;;;;;;;8.85;7.88;;;;;;;;;;5030480;28;20040;-59
2022/01/23 09:59:25;;;;;;;10.35;8.70;;;;;;;;;;5030259;28;20029;-59
2022/01/23 10:01:55;;;;;;;9.75;8.05;;;;;;;;;;5029866;28;20033;-59
2022/01/23 10:04:21;;;;;;;12.73;9.77;;;;;;;;;;5030404;28;20029;-58
2022/01/23 10:06:47;;;;;;;9.40;8.60;;;;;;;;;;5029743;28;20624;-59
2022/01/23 10:09:14;;;;;;;10.55;9.45;;;;;;;;;;5030477;28;20421;-59
2022/01/23 10:11:42;;;;;;;14.93;8.18;;;;;;;;;;5008260;28;20370;-60
2022/01/23 10:14:08;;;;;;;14.85;10.73;;;;;;;;;;5030140;28;20477;-60
2022/01/23 10:16:34;;;;;;;7.57;6.80;;;;;;;;;;5029421;28;20087;-59
2022/01/23 10:19:01;;;;;;;11.02;9.13;;;;;;;;;;5029389;28;20071;-59
2022/01/23 10:21:29;;;;;;;9.05;7.93;;;;;;;;;;5030146;28;20053;-59
2022/01/23 10:23:56;;;;;;;15.45;9.23;;;;;;;;;;5008815;28;20366;-59
2022/01/23 10:26:45;;;;;;;10.35;9.40;;;;;;;;;;5028889;28;20063;-59
2022/01/23 10:29:16;;;;;;;9.00;7.85;;;;;;;;;;5028166;28;20036;-59
2022/01/23 10:32:08;;;;;;;8.50;7.15;;;;;;;;;;5027572;28;20073;-58
2022/01/23 10:34:45;;;;;;;10.80;7.68;;;;;;;;;;5028224;28;20091;-58
2022/01/23 10:37:12;;;;;;;8.32;7.50;;;;;;;;;;5028867;28;20048;-58
2022/01/23 10:39:46;;;;;;;9.40;8.55;;;;;;;;;;5028631;28;20033;-58
2022/01/23 10:42:52;;;;;;;10.50;8.57;;;;;;;;;;5028206;28;20056;-58
2022/01/23 10:48:23;;;;;;;10.15;8.45;;;;;;;;;;5028470;28;20084;-58
2022/01/23 10:50:47;;;;;;;11.40;9.30;;;;;;;;;;5029387;28;20514;-59
2022/01/23 10:53:13;;;;;;;11.82;9.65;;;;;;;;;;5029288;28;20037;-58
2022/01/23 10:55:38;;;;;;;7.50;6.80;;;;;;;;;;5029010;28;20486;-60
2022/01/23 10:58:06;;;;;;;9.75;8.65;;;;;;;;;;5028125;28;20056;-62
2022/01/23 11:00:39;;;;;;;9.98;8.05;;;;;;;;;;5029032;28;20029;-59
2022/01/23 11:03:22;;;;;;;12.00;8.45;;;;;;;;;;5028600;28;20474;-60
2022/01/23 11:05:48;;;;;;;9.63;8.75;;;;;;;;;;5029194;28;20064;-58
2022/01/23 11:08:18;;;;;;;10.70;7.55;;;;;;;;;;5029521;28;20029;-59
2022/01/23 11:11:00;;;;;;;7.53;6.80;;;;;;;;;;5027907;28;20021;-60
2022/01/23 11:19:18;;;;;;;9.50;8.60;;;;;;;;;;5029182;28;20068;-58
2022/01/23 11:21:44;;;;;;;8.57;7.65;;;;;;;;;;5028505;28;20427;-61
2022/01/23 11:24:12;;;;;;;9.98;8.15;;;;;;;;;;5028412;28;20036;-59
2022/01/23 11:26:39;;;;;;;9.13;7.45;;;;;;;;;;5028430;28;20029;-59
2022/01/23 11:29:09;;;;;;;9.98;7.97;;;;;;;;;;5028498;28;20042;-61
2022/01/23 11:31:36;;;;;;;8.48;7.68;;;;;;;;;;5027594;28;20144;-60
2022/01/23 11:34:04;;;;;;;11.20;8.65;;;;;;;;;;5028320;28;20414;-59
2022/01/23 11:36:30;;;;;;;8.10;7.30;;;;;;;;;;5031960;28;20451;-59
2022/01/23 11:39:01;;;;;;;12.15;7.93;;;;;;;;;;5033020;28;20116;-59
2022/01/23 11:55:35;;;;;;;10.32;6.45;;;;;;;;;;5031670;28;20360;-59
2022/01/23 11:58:03;;;;;;;9.13;7.45;;;;;;;;;;5032449;28;20099;-60
2022/01/23 12:00:31;;;;;;;7.25;6.47;;;;;;;;;;5015290;28;20040;-59
2022/01/23 12:03:15;;;;;;;8.50;6.03;;;;;;;;;;5032081;28;20959;-59
2022/01/23 12:05:44;;;;;;;9.27;7.13;;;;;;;;;;5032318;28;20073;-59
2022/01/23 12:08:15;;;;;;;7.68;6.68;;;;;;;;;;5030987;28;20034;-59
2022/01/23 12:11:15;;;;;;;7.18;6.43;;;;;;;;;;5031744;28;20081;-61
2022/01/23 12:16:32;;;;;;;6.75;6.10;;;;;;;;;;5032732;28;20064;-59
2022/01/23 12:19:34;;;;;;;8.35;6.57;;;;;;;;;;5031048;28;20136;-61
2022/01/23 12:22:24;;;;;;;8.25;7.45;;;;;;;;;;4953990;28;20039;-61
2022/01/23 12:24:53;;;;;;;10.73;7.03;;;;;;;;;;5026653;28;20426;-62
2022/01/23 12:27:26;;;;;;;8.52;7.63;;;;;;;;;;5027317;28;20075;-61
2022/01/23 12:30:09;;;;;;;9.40;7.57;;;;;;;;;;5028713;28;20043;-61
2022/01/23 12:32:34;;;;;;;11.82;7.30;;;;;;;;;;5028401;28;20383;-61
2022/01/23 12:35:05;;;;;;;7.53;6.43;;;;;;;;;;5011463;28;20079;-62
2022/01/23 12:37:55;;;;;;;7.18;6.47;;;;;;;;;;5029580;28;20038;-62
2022/01/23 12:40:25;;;;;;;5.85;5.25;;;;;;;;;;5029627;28;20053;-61
2022/01/23 12:43:08;;;;;;;7.70;6.28;;;;;;;;;;5029638;28;20029;-61
2022/01/23 12:46:00;;;;;;;7.22;5.10;;;;;;;;;;5030538;28;20044;-62
2022/01/23 12:48:26;;;;;;;8.02;6.20;;;;;;;;;;5030718;28;20366;-61
2022/01/23 12:50:55;;;;;;;5.53;5.03;;;;;;;;;;5031313;28;20108;-61
2022/01/23 12:53:20;;;;;;;5.55;5.05;;;;;;;;;;5031834;28;20061;-62
2022/01/23 12:56:08;;;;;;;6.50;5.72;;;;;;;;;;5031203;28;20076;-61
2022/01/23 12:58:33;;;;;;;7.28;5.78;;;;;;;;;;5029383;28;20037;-61
2022/01/23 13:01:01;;;;;;;9.25;7.47;;;;;;;;;;5030701;28;20426;-61
2022/01/23 13:03:27;;;;;;;9.27;5.90;;;;;;;;;;5030340;28;20033;-61
2022/01/23 13:05:53;;;;;;;8.75;7.70;;;;;;;;;;5031265;28;20128;-61
2022/01/23 13:08:29;;;;;;;11.18;9.32;;;;;;;;;;5031729;28;20123;-61
2022/01/23 13:16:14;;;;;;;7.60;5.95;;;;;;;;;;5031069;28;20087;-60
2022/01/23 13:19:14;;;;;;;6.20;5.57;;;;;;;;;;5030388;28;20029;-60
2022/01/23 13:35:04;;;;;;;8.38;7.38;;;;;;;;;;5029679;28;20669;-61
2022/01/23 13:37:34;;;;;;;6.07;5.47;;;;;;;;;;5030188;28;20057;-61
2022/01/23 13:40:14;;;;;;;8.80;5.43;;;;;;;;;;5031049;28;20045;-61
2022/01/23 14:00:00;;;;;;;6.82;6.18;;;;;;;;;;5028714;28;20029;-59
2022/01/23 14:02:32;;;;;;;7.47;6.78;;;;;;;;;;5029989;28;20049;-59
2022/01/23 14:05:03;;;;;;;4.75;4.35;;;;;;;;;;5030614;28;20061;-59
2022/01/23 14:07:29;;;;;;;6.85;5.20;;;;;;;;;;5030151;28;20037;-59
2022/01/23 14:09:58;;;;;;;5.03;4.47;;;;;;;;;;5030230;28;20037;-59
2022/01/23 14:12:25;;;;;;;4.68;4.18;;;;;;;;;;5028281;28;20029;-59
2022/01/23 14:15:08;;;;;;;5.63;4.88;;;;;;;;;;5019267;28;20037;-59
2022/01/23 14:17:39;;;;;;;4.68;3.85;;;;;;;;;;5029024;28;20062;-59
2022/01/23 14:20:14;;;;;;;;;;;;;;;;;;5029865;28;20584;-59
2022/01/23 14:22:42;;;;;;;6.15;5.53;;;;;;;;;;5028537;28;19912;-59
2022/01/23 14:25:26;;;;;;;7.10;6.40;;;;;;;;;;5030292;28;20029;-59
2022/01/23 14:28:10;;;;;;;6.15;5.55;;;;;;;;;;5027801;28;20037;-59
2022/01/23 14:30:48;;;;;;;5.82;5.32;;;;;;;;;;5028671;28;20539;-59
2022/01/23 14:33:34;;;;;;;5.72;5.22;;;;;;;;;;5029223;28;20037;-60
2022/01/23 14:36:16;;;;;;;6.05;5.55;;;;;;;;;;5029766;28;20037;-59
2022/01/23 14:39:12;;;;;;;6.68;4.95;;;;;;;;;;5029601;28;20034;-59
2022/01/23 14:41:41;;;;;;;5.90;5.30;;;;;;;;;;5007910;28;20054;-59
2022/01/23 14:44:16;;;;;;;7.63;5.63;;;;;;;;;;5029733;28;20069;-59
2022/01/23 14:46:45;;;;;;;10.63;4.93;;;;;;;;;;5028777;28;20040;-58
2022/01/23 14:49:20;;;;;;;4.95;4.45;;;;;;;;;;5029048;28;20022;-59
2022/01/23 14:51:46;;;;;;;4.75;3.55;;;;;;;;;;5029961;28;20335;-59
2022/01/23 14:54:11;;;;;;;4.72;4.32;;;;;;;;;;5029849;28;20048;-58
2022/01/23 14:56:39;;;;;;;6.95;4.75;;;;;;;;;;5028432;28;20051;-59
2022/01/23 14:59:08;;;;;;;4.55;4.15;;;;;;;;;;5029302;28;20037;-59
2022/01/23 15:01:34;;;;;;;5.55;5.05;;;;;;;;;;5028828;28;20033;-60
2022/01/23 15:04:05;;;;;;;4.50;4.10;;;;;;;;;;5029778;28;20042;-60
2022/01/23 15:06:31;;;;;;;5.07;4.55;;;;;;;;;;5004176;28;20478;-59
2022/01/23 15:09:09;;;;;;;5.93;5.32;;;;;;;;;;5028988;28;20046;-60
2022/01/23 15:11:35;;;;;;;6.00;5.35;;;;;;;;;;5027421;28;20041;-60
2022/01/23 15:14:01;;;;;;;8.68;5.28;;;;;;;;;;5029291;28;20108;-60
2022/01/23 15:16:27;;;;;;;5.32;4.72;;;;;;;;;;5027252;28;20068;-59
2022/01/23 15:18:52;;;;;;;5.00;4.50;;;;;;;;;;5029021;28;20076;-59
2022/01/23 15:21:17;;;;;;;5.03;4.57;;;;;;;;;;5033913;28;20030;-59
2022/01/23 15:23:43;;;;;;;5.55;3.92;;;;;;;;;;5008405;28;20033;-59
2022/01/23 15:26:08;;;;;;;4.95;4.45;;;;;;;;;;5028804;28;20025;-59
2022/01/23 15:28:34;;;;;;;5.15;4.65;;;;;;;;;;5027657;28;20038;-60
2022/01/23 15:31:00;;;;;;;6.03;4.53;;;;;;;;;;5028508;28;20017;-60
2022/01/23 15:33:25;;;;;;;4.95;4.47;;;;;;;;;;5010004;28;20037;-59
2022/01/23 15:35:51;;;;;;;7.25;4.88;;;;;;;;;;5011843;28;20044;-58
2022/01/23 15:38:21;;;;;;;5.13;4.72;;;;;;;;;;5029508;28;20037;-58
2022/01/23 15:40:47;;;;;;;5.05;4.38;;;;;;;;;;5026963;28;20430;-60
2022/01/23 15:43:12;;;;;;;5.93;5.15;;;;;;;;;;5029021;28;20164;-58
2022/01/23 15:45:38;;;;;;;4.68;4.00;;;;;;;;;;5027437;28;20541;-58
2022/01/23 15:48:04;;;;;;;5.85;4.65;;;;;;;;;;5027941;28;20025;-58
2022/01/23 15:50:30;;;;;;;8.32;5.18;;;;;;;;;;5029383;28;20036;-58
2022/01/23 15:52:56;;;;;;;5.70;5.15;;;;;;;;;;5028528;28;20524;-58
2022/01/23 15:55:24;;;;;;;5.65;5.15;;;;;;;;;;5028448;28;20029;-58
2022/01/23 15:57:49;;;;;;;6.47;5.07;;;;;;;;;;5028728;28;20026;-58
2022/01/23 16:00:18;;;;;;;4.22;3.80;;;;;;;;;;5029019;28;20032;-58
2022/01/23 16:02:43;;;;;;;4.82;4.10;;;;;;;;;;5028242;28;20348;-58
2022/01/23 16:05:10;;;;;;;3.63;3.33;;;;;;;;;;5028936;28;20033;-59
2022/01/23 16:07:35;;;;;;;3.53;3.22;;;;;;;;;;5028473;28;20575;-59
2022/01/23 16:10:00;;;;;;;3.90;3.50;;;;;;;;;;5028551;28;20048;-59
2022/01/23 16:12:26;;;;;;;4.53;4.13;;;;;;;;;;5028800;28;20043;-58
2022/01/23 16:14:51;;;;;;;4.65;4.25;;;;;;;;;;5028001;28;20037;-61
2022/01/23 16:17:17;;;;;;;4.15;3.75;;;;;;;;;;5006956;28;20064;-59
2022/01/23 16:19:42;;;;;;;3.78;3.45;;;;;;;;;;5028634;28;20032;-58
2022/01/23 16:22:08;;;;;;;4.32;3.78;;;;;;;;;;5030334;28;20374;-58
2022/01/23 16:24:33;;;;;;;5.25;4.57;;;;;;;;;;5031821;28;20045;-58
2022/01/23 16:26:59;;;;;;;4.53;4.10;;;;;;;;;;5007411;28;20043;-59
2022/01/23 16:29:26;;;;;;;4.38;3.97;;;;;;;;;;5031957;28;20332;-58
2022/01/23 16:31:54;;;;;;;3.45;3.15;;;;;;;;;;5031640;28;20057;-58
2022/01/23 16:34:23;;;;;;;4.18;3.78;;;;;;;;;;5032391;28;20124;-58
2022/01/23 16:36:48;;;;;;;4.35;3.78;;;;;;;;;;5030601;28;20034;-58
2022/01/23 16:39:16;;;;;;;3.60;3.30;;;;;;;;;;5031989;28;20423;-58
2022/01/23 16:41:44;;;;;;;3.78;3.38;;;;;;;;;;5029538;28;20044;-59
2022/01/23 16:44:12;;;;;;;4.20;3.80;;;;;;;;;;5013468;28;20026;-58
2022/01/23 16:46:41;;;;;;;5.43;4.90;;;;;;;;;;5031108;28;20029;-58
2022/01/23 16:49:10;;;;;;;4.40;4.00;;;;;;;;;;5035790;28;20099;-58
2022/01/23 16:51:38;;;;;;;5.18;4.32;;;;;;;;;;5030942;28;20044;-58
2022/01/23 16:54:08;;;;;;;5.05;3.88;;;;;;;;;;5031757;28;20075;-58
2022/01/23 16:56:34;;;;;;;4.13;3.72;;;;;;;;;;5030587;28;20045;-58
2022/01/23 16:59:00;;;;;;;6.45;3.55;;;;;;;;;;5031181;28;20438;-60
2022/01/23 17:01:25;;;;;;;4.18;3.78;;;;;;;;;;5031385;28;20039;-58
2022/01/23 17:03:50;;;;;;;7.38;4.55;;;;;;;;;;5031182;28;20064;-58
2022/01/23 17:06:16;;;;;;;4.85;4.35;;;;;;;;;;5030904;28;20033;-58
2022/01/23 17:08:43;;;;;;;4.35;3.95;;;;;;;;;;5031439;28;20034;-58
2022/01/23 17:11:08;;;;;;;3.28;2.97;;;;;;;;;;5030813;28;20475;-58
2022/01/23 17:13:33;;;;;;;5.63;3.78;;;;;;;;;;5030583;28;20055;-57
2022/01/23 17:15:59;;;;;;;4.05;3.65;;;;;;;;;;5012159;28;20037;-57
2022/01/23 17:18:24;;;;;;;4.38;3.97;;;;;;;;;;5030499;28;20087;-57
2022/01/23 17:20:49;;;;;;;3.85;3.55;;;;;;;;;;5013840;28;20356;-58
2022/01/23 17:23:15;;;;;;;4.03;3.60;;;;;;;;;;5030915;28;20034;-58
2022/01/23 17:25:40;;;;;;;4.63;4.22;;;;;;;;;;5029285;28;20351;-58
2022/01/23 17:28:06;;;;;;;5.57;4.57;;;;;;;;;;5030144;28;20115;-57
2022/01/23 17:30:32;;;;;;;5.00;4.10;;;;;;;;;;5036341;28;20032;-58
2022/01/23 17:32:57;;;;;;;4.43;4.03;;;;;;;;;;5029914;28;20037;-58
2022/01/23 17:35:23;;;;;;;4.85;4.40;;;;;;;;;;5031055;28;20041;-58
2022/01/23 17:37:50;;;;;;;4.72;4.30;;;;;;;;;;5030646;28;20025;-59
2022/01/23 17:40:16;;;;;;;5.50;5.00;;;;;;;;;;5029203;28;20041;-60
2022/01/23 17:42:42;;;;;;;6.20;5.63;;;;;;;;;;5028807;28;20033;-59
2022/01/23 17:45:10;;;;;;;4.88;4.45;;;;;;;;;;5028543;28;20044;-59
2022/01/23 17:50:33;;;;;;;4.38;3.97;;;;;;;;;;5005914;28;20136;-60
2022/01/23 17:52:59;;;;;;;5.03;3.67;;;;;;;;;;5028301;28;20457;-59
2022/01/23 17:55:25;;;;;;;4.55;4.15;;;;;;;;;;5029498;28;20098;-59
2022/01/23 17:57:50;;;;;;;5.55;4.15;;;;;;;;;;5012085;28;20037;-59
2022/01/23 18:00:16;;;;;;;4.45;4.05;;;;;;;;;;5030344;28;20041;-59
2022/01/23 18:02:43;;;;;;;3.42;3.13;;;;;;;;;;5028341;28;20120;-60
2022/01/23 18:05:09;;;;;;;4.40;3.60;;;;;;;;;;5015390;28;20143;-60
2022/01/23 18:07:35;;;;;;;4.10;3.70;;;;;;;;;;5029089;28;20033;-60
2022/01/23 18:10:02;;;;;;;5.20;4.15;;;;;;;;;;5028844;28;20033;-59
2022/01/23 18:12:28;;;;;;;4.78;4.38;;;;;;;;;;5028149;28;20033;-59
2022/01/23 18:14:53;;;;;;;3.65;3.35;;;;;;;;;;5030206;28;20074;-60